Terminal Aerodrome Forecast
Issued by NWS

Home | Current Version | Previous Version | Text Only | Print | Product List | Glossary On
Versions: 1 2 3 4 5 6 7 8 9 10 11 12 13 14 15
133
FTUS42 KJAX 240545
TAFCRG
TAF
KCRG 240545Z 2406/2506 06005KT P6SM SCT040
     FM241300 09010KT P6SM BKN040 BKN060
     FM241500 10013G21KT P6SM SCT045 BKN060
     FM250000 08008KT P6SM FEW040 SCT060 SCT250=

USA.gov is the U.S. government's official web portal to all federal, state and local government web resources and services.